Time;durP1;ratioP1;P1;durP2;ratioP2;P2;SDS_P1;SDS_P2;PMS_P1;PMS_P2;Temp;Humidity;BMP_temperature;BMP_pressure;BME280_temperature;BME280_humidity;BME280_pressure;Samples;Min_cycle;Max_cycle;Signal;HPM_P1;HPM_P2
2024/01/10 00:00:24;;;;;;;30.03;11.03;;;;;-5.40;97002.00;;;;8269447;28;20317;-69
2024/01/10 00:04:27;;;;;;;29.70;11.97;;;;;-5.40;96986.00;;;;8268014;28;20226;-69
2024/01/10 00:08:31;;;;;;;20.93;9.50;;;;;-5.40;96993.00;;;;8268762;28;20814;-69
2024/01/10 00:12:36;;;;;;;31.10;11.57;;;;;-5.40;96990.00;;;;8269566;28;20237;-69
2024/01/10 00:16:39;;;;;;;24.93;9.57;;;;;-5.40;96985.00;;;;8270247;28;20285;-69
2024/01/10 00:20:43;;;;;;;21.10;9.07;;;;;-5.40;96985.00;;;;8267142;28;20202;-69
2024/01/10 00:24:46;;;;;;;18.43;7.90;;;;;-5.40;96986.00;;;;8269223;28;20205;-69
2024/01/10 00:28:50;;;;;;;26.00;10.60;;;;;-5.40;96982.00;;;;8268575;28;20578;-69
2024/01/10 00:32:53;;;;;;;22.67;9.20;;;;;-5.40;96980.00;;;;8269435;28;20229;-69
2024/01/10 00:36:57;;;;;;;24.07;9.23;;;;;-5.40;96987.00;;;;8269491;28;20245;-69
2024/01/10 00:41:00;;;;;;;36.10;12.03;;;;;-5.50;96984.00;;;;8269082;28;20206;-69
2024/01/10 00:45:06;;;;;;;28.37;10.03;;;;;-5.40;96986.00;;;;8269334;28;20194;-69
2024/01/10 00:49:09;;;;;;;20.10;8.67;;;;;-5.50;96985.00;;;;8268806;28;20733;-69
2024/01/10 00:53:13;;;;;;;26.80;10.30;;;;;-5.50;96984.00;;;;8267522;28;20679;-68
2024/01/10 00:57:16;;;;;;;24.57;9.97;;;;;-5.50;96984.00;;;;8266755;28;20289;-69
2024/01/10 01:01:20;;;;;;;28.93;10.13;;;;;-5.50;96981.00;;;;8268078;28;20316;-67
2024/01/10 01:05:24;;;;;;;19.43;7.93;;;;;-5.50;96990.00;;;;8266140;28;20574;-68
2024/01/10 01:09:28;;;;;;;22.17;8.27;;;;;-5.60;96992.00;;;;8267919;28;20209;-68
2024/01/10 01:13:31;;;;;;;30.60;11.47;;;;;-5.60;96999.00;;;;8265863;28;20264;-69
2024/01/10 01:17:36;;;;;;;24.57;8.43;;;;;-5.60;97004.00;;;;8264402;28;20206;-69
2024/01/10 01:21:39;;;;;;;18.70;7.90;;;;;-5.60;96993.00;;;;8267738;28;20202;-69
2024/01/10 01:25:43;;;;;;;36.00;14.40;;;;;-5.60;96993.00;;;;8266275;28;20293;-69
2024/01/10 01:29:46;;;;;;;24.07;8.83;;;;;-5.60;97006.00;;;;8269088;28;20252;-69
2024/01/10 01:33:50;;;;;;;23.23;8.17;;;;;-5.60;97009.00;;;;8266249;28;20472;-69
2024/01/10 01:37:54;;;;;;;23.07;9.90;;;;;-5.60;97007.00;;;;8267808;28;20230;-69
2024/01/10 01:41:57;;;;;;;29.50;11.43;;;;;-5.60;97005.00;;;;8264670;28;20264;-69
2024/01/10 01:46:00;;;;;;;30.70;11.33;;;;;-5.70;97008.00;;;;8268012;28;20960;-68
2024/01/10 01:50:06;;;;;;;19.80;8.37;;;;;-5.70;97004.00;;;;8266211;28;20293;-68
2024/01/10 01:54:11;;;;;;;27.83;11.27;;;;;-5.70;97001.00;;;;8266912;28;20941;-68
2024/01/10 01:58:14;;;;;;;23.00;8.90;;;;;-5.70;96990.00;;;;8256902;28;20207;-68
2024/01/10 02:02:17;;;;;;;25.80;8.47;;;;;-5.70;96992.00;;;;8252144;28;20234;-68
2024/01/10 02:06:22;;;;;;;33.20;11.10;;;;;-5.70;96982.00;;;;8264608;28;20201;-68
2024/01/10 02:10:26;;;;;;;26.60;11.70;;;;;-5.70;96985.00;;;;8261850;28;20206;-68
2024/01/10 02:14:29;;;;;;;29.73;11.60;;;;;-5.70;96984.00;;;;8258732;28;20222;-71
2024/01/10 02:18:32;;;;;;;26.97;10.23;;;;;-5.70;96984.00;;;;8262108;28;20715;-68
2024/01/10 02:22:37;;;;;;;25.77;9.47;;;;;-5.60;96991.00;;;;8261384;28;20202;-68
2024/01/10 02:26:41;;;;;;;21.83;9.53;;;;;-5.70;96993.00;;;;8264113;28;20724;-68
2024/01/10 02:30:47;;;;;;;35.07;13.30;;;;;-5.70;96989.00;;;;8261249;28;20631;-68
2024/01/10 02:34:50;;;;;;;26.97;11.30;;;;;-5.70;96988.00;;;;8264724;28;20632;-68
2024/01/10 02:38:53;;;;;;;23.30;9.23;;;;;-5.70;96999.00;;;;8262150;28;20224;-68
2024/01/10 02:42:58;;;;;;;36.90;13.13;;;;;-5.70;96985.00;;;;8262432;28;20238;-68
2024/01/10 02:47:01;;;;;;;16.60;7.03;;;;;-5.80;96996.00;;;;8261849;28;20205;-69
2024/01/10 02:51:05;;;;;;;35.67;11.90;;;;;-5.80;96991.00;;;;8262901;28;20245;-68
2024/01/10 02:55:08;;;;;;;19.43;8.13;;;;;-5.80;96983.00;;;;8262316;28;20745;-68
2024/01/10 02:59:13;;;;;;;16.73;7.83;;;;;-5.80;96984.00;;;;8260917;28;20219;-68
2024/01/10 03:03:16;;;;;;;29.23;10.40;;;;;-5.80;96985.00;;;;8306126;22;20974;-68
2024/01/10 03:07:19;;;;;;;37.37;9.67;;;;;-5.90;96986.00;;;;8284988;28;20237;-68
2024/01/10 03:11:22;;;;;;;29.33;10.83;;;;;-5.90;96982.00;;;;8288701;28;20236;-68
2024/01/10 03:15:27;;;;;;;31.83;10.97;;;;;-5.90;96981.00;;;;8289353;28;20228;-68
2024/01/10 03:19:30;;;;;;;21.50;7.90;;;;;-5.90;96974.00;;;;8291086;28;20209;-69
2024/01/10 03:23:33;;;;;;;22.27;9.33;;;;;-5.90;96978.00;;;;8288340;28;20613;-69
2024/01/10 03:27:36;;;;;;;20.67;8.03;;;;;-5.90;96978.00;;;;8288552;28;20705;-69
2024/01/10 03:31:40;;;;;;;19.63;6.67;;;;;-6.00;96973.00;;;;8288204;28;20210;-69
2024/01/10 03:35:44;;;;;;;38.63;15.03;;;;;-6.00;96979.00;;;;8288227;28;20254;-69
2024/01/10 03:39:47;;;;;;;21.77;8.87;;;;;-6.00;96980.00;;;;8290033;28;20210;-69
2024/01/10 03:43:50;;;;;;;22.70;9.47;;;;;-6.00;96983.00;;;;8288814;28;20691;-69
2024/01/10 03:47:55;;;;;;;33.40;11.90;;;;;-6.00;96972.00;;;;8289748;28;20237;-69
2024/01/10 03:51:58;;;;;;;23.43;10.03;;;;;-6.10;96974.00;;;;8289901;28;20507;-68
2024/01/10 03:56:04;;;;;;;26.47;11.43;;;;;-6.10;96969.00;;;;8291885;28;20256;-68
2024/01/10 04:00:09;;;;;;;26.00;11.47;;;;;-6.10;96972.00;;;;8289027;28;20292;-69
2024/01/10 04:04:14;;;;;;;35.37;11.30;;;;;-6.20;96977.00;;;;8277880;28;21051;-68
2024/01/10 04:08:17;;;;;;;19.50;8.33;;;;;-6.20;96987.00;;;;8272933;28;20209;-68
2024/01/10 04:12:21;;;;;;;25.23;7.97;;;;;-6.20;96981.00;;;;8276670;28;20702;-69
2024/01/10 04:16:24;;;;;;;33.10;11.20;;;;;-6.20;96979.00;;;;8275611;28;21184;-68
2024/01/10 04:20:28;;;;;;;18.33;7.73;;;;;-6.30;96982.00;;;;8275636;28;20956;-68
2024/01/10 04:24:32;;;;;;;33.23;11.30;;;;;-6.30;96981.00;;;;8276108;28;20205;-68
2024/01/10 04:28:35;;;;;;;32.83;12.57;;;;;-6.30;96988.00;;;;8274110;28;22167;-70
2024/01/10 04:32:38;;;;;;;25.10;8.27;;;;;-6.30;96990.00;;;;8275716;28;20287;-69
2024/01/10 04:36:42;;;;;;;31.80;11.13;;;;;-6.30;96987.00;;;;8277869;28;20240;-70
2024/01/10 04:40:45;;;;;;;35.87;10.83;;;;;-6.30;97001.00;;;;8277262;28;20216;-69
2024/01/10 04:44:49;;;;;;;35.23;12.13;;;;;-6.30;96988.00;;;;8275186;28;20217;-68
2024/01/10 04:48:52;;;;;;;49.20;14.47;;;;;-6.30;96987.00;;;;8276343;28;20198;-68
2024/01/10 04:52:57;;;;;;;35.87;12.83;;;;;-6.30;96997.00;;;;8279156;28;20202;-68
2024/01/10 04:57:00;;;;;;;28.87;9.27;;;;;-6.30;96990.00;;;;8279684;28;20768;-68
2024/01/10 05:01:03;;;;;;;31.00;9.63;;;;;-6.30;96991.00;;;;8276959;28;20339;-68
2024/01/10 05:05:07;;;;;;;21.50;8.50;;;;;-6.40;97001.00;;;;8277489;28;20225;-68
2024/01/10 05:09:12;;;;;;;31.90;12.00;;;;;-6.40;96998.00;;;;8281963;28;20209;-68
2024/01/10 05:13:15;;;;;;;31.13;12.43;;;;;-6.40;97000.00;;;;8276998;28;20202;-69
2024/01/10 05:17:18;;;;;;;23.60;9.00;;;;;-6.40;96997.00;;;;8274313;28;20276;-69
2024/01/10 05:21:22;;;;;;;26.87;10.37;;;;;-6.30;96993.00;;;;8273481;28;20209;-69
2024/01/10 05:25:27;;;;;;;35.03;12.67;;;;;-6.40;96997.00;;;;8276552;28;20267;-68
2024/01/10 05:29:30;;;;;;;17.63;8.30;;;;;-6.30;96996.00;;;;8275810;28;20224;-69
2024/01/10 05:33:33;;;;;;;25.07;9.53;;;;;-6.40;96989.00;;;;8276501;28;20204;-69
2024/01/10 05:37:36;;;;;;;45.43;14.53;;;;;-6.40;96999.00;;;;8275815;28;20225;-69
2024/01/10 05:41:41;;;;;;;37.63;14.53;;;;;-6.40;96996.00;;;;8278394;28;20202;-69
2024/01/10 05:45:45;;;;;;;29.00;11.47;;;;;-6.40;97005.00;;;;8276784;28;20299;-69
2024/01/10 05:49:48;;;;;;;24.87;8.20;;;;;-6.50;96996.00;;;;8276133;28;20228;-69
2024/01/10 05:53:51;;;;;;;36.50;13.00;;;;;-6.50;97005.00;;;;8277335;28;20252;-69
2024/01/10 05:57:56;;;;;;;35.73;12.33;;;;;-6.50;97003.00;;;;8277172;28;20245;-69
2024/01/10 06:01:59;;;;;;;41.03;13.93;;;;;-6.50;96999.00;;;;8274472;28;20235;-69
2024/01/10 06:06:03;;;;;;;35.03;12.93;;;;;-6.60;97005.00;;;;8275589;28;20817;-69
2024/01/10 06:10:07;;;;;;;46.03;15.23;;;;;-6.60;96999.00;;;;8268877;28;20419;-69
2024/01/10 06:14:12;;;;;;;31.37;12.17;;;;;-6.60;97008.00;;;;8270897;28;20236;-69
2024/01/10 06:18:15;;;;;;;39.20;12.13;;;;;-6.70;97005.00;;;;8273908;28;20652;-69
2024/01/10 06:22:18;;;;;;;37.60;11.43;;;;;-6.70;97005.00;;;;8271453;28;20209;-69
2024/01/10 06:26:22;;;;;;;36.47;11.63;;;;;-6.70;97012.00;;;;8279092;28;20206;-69
2024/01/10 06:30:26;;;;;;;36.23;12.50;;;;;-6.70;97011.00;;;;8274941;28;20207;-69
2024/01/10 06:34:29;;;;;;;24.73;9.83;;;;;-6.70;97007.00;;;;8274040;28;20251;-69
2024/01/10 06:38:32;;;;;;;30.07;11.57;;;;;-6.70;97012.00;;;;8263508;28;21753;-70
2024/01/10 06:42:37;;;;;;;30.37;11.97;;;;;-6.60;97020.00;;;;8278249;28;20199;-68
2024/01/10 06:46:42;;;;;;;27.40;10.73;;;;;-6.60;97017.00;;;;8277620;28;20209;-68
2024/01/10 06:50:45;;;;;;;34.27;12.97;;;;;-6.60;97024.00;;;;8260792;28;20754;-68
2024/01/10 06:54:49;;;;;;;28.80;11.47;;;;;-6.70;97028.00;;;;8270991;28;20226;-68
2024/01/10 06:58:54;;;;;;;45.10;14.90;;;;;-6.60;97025.00;;;;8279971;28;20204;-68
2024/01/10 07:03:02;;;;;;;39.37;13.70;;;;;-6.60;97033.00;;;;8278504;28;20259;-68
2024/01/10 07:07:05;;;;;;;33.47;13.47;;;;;-6.70;97034.00;;;;8278381;28;20228;-68
2024/01/10 07:11:09;;;;;;;32.03;11.17;;;;;-6.70;97036.00;;;;8280380;28;20257;-67
2024/01/10 07:15:12;;;;;;;40.53;12.43;;;;;-6.70;97034.00;;;;8279952;28;20926;-68
2024/01/10 07:19:17;;;;;;;26.53;11.27;;;;;-6.70;97033.00;;;;8278216;28;20791;-68
2024/01/10 07:23:20;;;;;;;35.00;14.30;;;;;-6.70;97026.00;;;;8274665;28;20244;-67
2024/01/10 07:27:24;;;;;;;41.60;12.77;;;;;-6.60;97025.00;;;;8274621;28;20219;-68
2024/01/10 07:31:29;;;;;;;44.23;14.53;;;;;-6.60;97029.00;;;;8270540;28;22057;-67
2024/01/10 07:35:33;;;;;;;40.93;14.40;;;;;-6.60;97034.00;;;;8274586;28;20214;-67
2024/01/10 07:39:37;;;;;;;39.23;14.47;;;;;-6.60;97034.00;;;;8274220;28;20206;-68
2024/01/10 07:43:40;;;;;;;46.20;14.77;;;;;-6.50;97036.00;;;;8272404;28;20790;-68
2024/01/10 07:47:46;;;;;;;53.57;18.13;;;;;-6.50;97036.00;;;;8273516;28;20232;-68
2024/01/10 07:51:51;;;;;;;40.63;14.50;;;;;-6.40;97042.00;;;;8272128;28;20274;-68
2024/01/10 07:55:54;;;;;;;61.87;19.47;;;;;-6.40;97054.00;;;;8272548;28;20222;-67
2024/01/10 07:59:57;;;;;;;31.97;13.47;;;;;-6.30;97055.00;;;;8275225;28;20630;-68
2024/01/10 08:04:00;;;;;;;33.47;12.10;;;;;-6.30;97054.00;;;;8270037;28;20320;-68
2024/01/10 08:08:05;;;;;;;37.37;11.30;;;;;-6.20;97053.00;;;;8276508;28;20316;-68
2024/01/10 08:12:09;;;;;;;14.67;6.50;;;;;-6.10;97046.00;;;;8275641;28;20959;-68
2024/01/10 08:16:12;;;;;;;27.23;11.10;;;;;-6.10;97049.00;;;;8277272;28;20242;-68
2024/01/10 08:20:20;;;;;;;43.00;15.57;;;;;-6.00;97065.00;;;;8275391;28;20201;-68
2024/01/10 08:24:25;;;;;;;28.43;9.13;;;;;-5.90;97075.00;;;;8276882;28;20210;-68
2024/01/10 08:28:28;;;;;;;37.10;13.27;;;;;-5.80;97069.00;;;;8273042;28;20209;-67
2024/01/10 08:32:33;;;;;;;37.97;13.73;;;;;-5.70;97073.00;;;;8271742;28;20207;-68
2024/01/10 08:36:37;;;;;;;28.50;11.80;;;;;-5.70;97068.00;;;;8276669;28;20236;-68
2024/01/10 08:40:41;;;;;;;29.13;11.30;;;;;-5.60;97098.00;;;;8269354;28;20198;-68
2024/01/10 08:44:45;;;;;;;39.20;14.93;;;;;-5.50;97082.00;;;;8271720;28;20221;-68
2024/01/10 08:48:48;;;;;;;28.20;11.63;;;;;-5.40;97092.00;;;;8269756;28;20290;-68
2024/01/10 08:52:51;;;;;;;33.23;12.57;;;;;-5.40;97097.00;;;;8272083;28;20247;-68
2024/01/10 08:56:56;;;;;;;26.70;10.70;;;;;-5.30;97094.00;;;;8266009;28;20309;-68
2024/01/10 09:00:59;;;;;;;30.93;12.07;;;;;-5.20;97095.00;;;;8265450;28;20268;-68
2024/01/10 09:05:03;;;;;;;45.50;15.47;;;;;-5.20;97092.00;;;;8271624;28;20214;-68
2024/01/10 09:09:06;;;;;;;35.20;13.30;;;;;-5.10;97102.00;;;;8271172;28;20223;-68
2024/01/10 09:13:10;;;;;;;38.00;14.70;;;;;-5.00;97101.00;;;;8271662;28;20301;-68
2024/01/10 09:17:13;;;;;;;21.70;10.50;;;;;-4.90;97112.00;;;;8271535;28;21047;-67
2024/01/10 09:21:20;;;;;;;40.73;14.90;;;;;-4.80;97108.00;;;;8272989;28;20201;-68
2024/01/10 09:25:23;;;;;;;48.07;13.97;;;;;-4.70;97112.00;;;;8268166;28;20213;-68
2024/01/10 09:29:28;;;;;;;39.23;14.17;;;;;-4.60;97121.00;;;;8270652;28;20210;-68
2024/01/10 09:33:31;;;;;;;32.53;11.43;;;;;-4.40;97116.00;;;;8268641;28;20225;-69
2024/01/10 09:37:34;;;;;;;35.67;12.23;;;;;-4.30;97118.00;;;;8268271;28;20292;-68
2024/01/10 09:41:48;;;;;;;36.00;13.17;;;;;-4.10;97124.00;;;;8269316;28;20233;-68
2024/01/10 09:45:54;;;;;;;39.90;15.47;;;;;-4.00;97123.00;;;;8271892;28;20216;-69
2024/01/10 09:49:57;;;;;;;40.70;14.10;;;;;-3.80;97135.00;;;;8268370;28;20213;-69
2024/01/10 09:54:04;;;;;;;38.33;13.90;;;;;-3.80;97135.00;;;;8264065;28;20208;-69
2024/01/10 09:58:08;;;;;;;43.53;15.53;;;;;-3.70;97125.00;;;;8268755;28;20243;-69
2024/01/10 10:02:14;;;;;;;40.73;15.97;;;;;-3.60;97120.00;;;;8263837;28;22198;-69
2024/01/10 10:06:17;;;;;;;45.33;15.30;;;;;-3.40;97121.00;;;;8266927;28;20213;-68
2024/01/10 10:10:21;;;;;;;39.27;14.53;;;;;-3.30;97119.00;;;;8270520;28;20611;-68
2024/01/10 10:14:25;;;;;;;42.63;16.50;;;;;-3.20;97123.00;;;;8268719;28;20212;-68
2024/01/10 10:18:31;;;;;;;37.07;15.10;;;;;-3.00;97108.00;;;;8268252;28;20233;-68
2024/01/10 10:22:35;;;;;;;39.57;13.70;;;;;-2.80;97120.00;;;;8268205;28;20746;-68
2024/01/10 10:26:38;;;;;;;35.60;13.53;;;;;-2.70;97126.00;;;;8264030;28;20245;-68
2024/01/10 10:30:41;;;;;;;42.77;14.13;;;;;-2.60;97124.00;;;;8265390;28;20202;-68
2024/01/10 10:34:46;;;;;;;31.40;13.20;;;;;-2.50;97123.00;;;;8266287;28;20276;-64
2024/01/10 10:38:49;;;;;;;38.07;14.90;;;;;-2.40;97125.00;;;;8262482;28;20240;-69
2024/01/10 10:42:56;;;;;;;39.17;14.20;;;;;-2.20;97122.00;;;;8269384;28;20322;-67
2024/01/10 10:47:06;;;;;;;36.77;13.40;;;;;-2.10;97129.00;;;;8267597;28;20207;-68
2024/01/10 10:51:20;;;;;;;36.40;13.43;;;;;-2.00;97130.00;;;;8261553;28;21129;-68
2024/01/10 10:55:27;;;;;;;38.60;14.00;;;;;-2.00;97126.00;;;;8268088;28;20683;-68
2024/01/10 10:59:33;;;;;;;38.60;13.83;;;;;-1.80;97126.00;;;;8265914;28;20266;-67
2024/01/10 11:03:38;;;;;;;32.93;14.00;;;;;-1.80;97118.00;;;;8266647;28;20228;-68
2024/01/10 11:07:44;;;;;;;33.73;13.87;;;;;-1.60;97120.00;;;;8260663;28;20206;-68
2024/01/10 11:12:02;;;;;;;31.93;14.10;;;;;-1.40;97125.00;;;;8263940;28;20210;-68
2024/01/10 11:16:55;;;;;;;36.50;14.70;;;;;-1.30;97115.00;;;;8264408;28;20782;-68
2024/01/10 11:21:13;;;;;;;33.60;13.90;;;;;-1.20;97124.00;;;;8162751;28;20204;-68
2024/01/10 11:25:19;;;;;;;30.40;13.07;;;;;-1.20;97108.00;;;;8216179;28;20949;-67
2024/01/10 11:29:24;;;;;;;34.47;13.87;;;;;-1.10;97105.00;;;;8266209;28;21012;-67
2024/01/10 11:33:32;;;;;;;32.10;13.73;;;;;-1.00;97106.00;;;;8268490;28;20247;-68
2024/01/10 11:37:41;;;;;;;34.97;13.87;;;;;-0.90;97103.00;;;;8271949;28;20232;-68
2024/01/10 11:41:48;;;;;;;32.70;13.53;;;;;-0.80;97095.00;;;;8272540;28;20281;-67
2024/01/10 11:45:56;;;;;;;36.20;13.90;;;;;-0.80;97091.00;;;;8272373;28;20764;-68
2024/01/10 11:50:00;;;;;;;34.67;13.07;;;;;-0.70;97095.00;;;;8267970;28;20207;-68
2024/01/10 11:54:03;;;;;;;31.67;13.00;;;;;-0.60;97104.00;;;;8268165;28;20204;-67
2024/01/10 11:58:11;;;;;;;31.47;13.47;;;;;-0.50;97088.00;;;;8273456;28;20238;-67
2024/01/10 12:02:15;;;;;;;32.83;13.47;;;;;-0.30;97088.00;;;;8270084;28;20235;-69
2024/01/10 12:06:19;;;;;;;36.80;15.20;;;;;-0.20;97093.00;;;;8267253;28;20202;-69
2024/01/10 12:10:26;;;;;;;31.27;13.80;;;;;-0.20;97094.00;;;;8262362;28;20210;-69
2024/01/10 12:14:31;;;;;;;34.80;15.10;;;;;-0.10;97097.00;;;;8267980;28;20210;-68
2024/01/10 12:18:34;;;;;;;62.13;22.10;;;;;0.00;97093.00;;;;8270663;28;20230;-68
2024/01/10 12:22:37;;;;;;;33.17;14.60;;;;;0.00;97095.00;;;;8271107;28;20235;-68
2024/01/10 12:26:45;;;;;;;46.67;18.60;;;;;0.10;97084.00;;;;8273567;28;20913;-67
2024/01/10 12:30:50;;;;;;;35.10;13.83;;;;;0.10;97088.00;;;;8273575;28;20221;-67
2024/01/10 12:34:59;;;;;;;35.63;13.83;;;;;0.10;97088.00;;;;8271395;28;20197;-67
2024/01/10 12:39:07;;;;;;;32.00;13.37;;;;;0.20;97085.00;;;;8264584;28;20225;-67
2024/01/10 12:43:12;;;;;;;28.80;11.80;;;;;0.20;97091.00;;;;8272366;28;20259;-67
2024/01/10 12:47:20;;;;;;;31.13;13.20;;;;;0.10;97086.00;;;;8274780;28;20303;-67
2024/01/10 12:51:25;;;;;;;33.90;13.80;;;;;0.10;97091.00;;;;8272693;28;20868;-68
2024/01/10 12:55:28;;;;;;;33.20;12.77;;;;;0.20;97085.00;;;;8272367;28;20217;-67
2024/01/10 12:59:31;;;;;;;34.40;13.60;;;;;0.10;97076.00;;;;8263910;28;20317;-67
2024/01/10 13:03:36;;;;;;;33.30;13.50;;;;;0.10;97078.00;;;;8268503;28;20232;-68
2024/01/10 13:07:40;;;;;;;27.83;12.87;;;;;0.10;97083.00;;;;8275293;28;20306;-67
2024/01/10 13:11:45;;;;;;;30.23;13.17;;;;;0.20;97089.00;;;;8266250;28;20214;-65
2024/01/10 13:15:49;;;;;;;54.53;15.90;;;;;0.20;97080.00;;;;8269817;28;20700;-66
2024/01/10 13:19:55;;;;;;;38.40;14.97;;;;;0.30;97083.00;;;;8272873;28;20221;-67
2024/01/10 13:24:01;;;;;;;33.47;14.53;;;;;0.40;97083.00;;;;8273003;28;20212;-67
2024/01/10 13:28:04;;;;;;;34.03;13.70;;;;;0.40;97085.00;;;;8269464;28;20211;-64
2024/01/10 13:32:09;;;;;;;38.17;13.80;;;;;0.40;97092.00;;;;8270165;28;20760;-65
2024/01/10 13:36:15;;;;;;;36.07;14.13;;;;;0.30;97090.00;;;;8272339;28;20815;-64
2024/01/10 13:40:23;;;;;;;43.03;17.13;;;;;0.20;97088.00;;;;8270283;28;20232;-64
2024/01/10 13:44:26;;;;;;;40.10;14.80;;;;;0.20;97087.00;;;;8267859;28;20965;-65
2024/01/10 13:48:30;;;;;;;37.07;14.83;;;;;0.20;97099.00;;;;8268505;28;20212;-65
2024/01/10 13:52:34;;;;;;;37.93;15.23;;;;;0.20;97091.00;;;;8271350;28;20737;-65
2024/01/10 13:56:39;;;;;;;36.80;15.43;;;;;0.10;97090.00;;;;8267492;28;20205;-64
2024/01/10 14:00:42;;;;;;;39.60;14.43;;;;;0.20;97094.00;;;;8267464;28;22401;-65
2024/01/10 14:04:47;;;;;;;34.37;14.97;;;;;0.10;97093.00;;;;8268405;28;20233;-64
2024/01/10 14:08:53;;;;;;;38.17;14.93;;;;;0.20;97095.00;;;;8266850;28;20228;-65
2024/01/10 14:12:56;;;;;;;42.60;15.43;;;;;0.20;97089.00;;;;8266667;28;20206;-65
2024/01/10 14:16:59;;;;;;;37.93;15.30;;;;;0.10;97087.00;;;;8266911;28;20701;-64
2024/01/10 14:21:02;;;;;;;35.63;14.77;;;;;0.10;97093.00;;;;8273672;28;20229;-64
2024/01/10 14:25:09;;;;;;;37.47;13.13;;;;;0.10;97088.00;;;;8267235;28;20227;-64
2024/01/10 14:29:12;;;;;;;36.53;13.47;;;;;0.10;97094.00;;;;8259134;28;20201;-64
2024/01/10 14:33:15;;;;;;;37.97;14.73;;;;;0.10;97089.00;;;;8266129;28;20220;-65
2024/01/10 14:37:20;;;;;;;41.47;15.23;;;;;0.00;97094.00;;;;8264217;28;20728;-63
2024/01/10 14:41:25;;;;;;;31.23;13.30;;;;;0.00;97084.00;;;;8261965;28;20257;-63
2024/01/10 14:45:29;;;;;;;45.47;16.17;;;;;0.00;97085.00;;;;8269591;28;20200;-64
2024/01/10 14:49:32;;;;;;;41.60;16.10;;;;;0.00;97103.00;;;;8265936;28;20231;-64
2024/01/10 14:53:36;;;;;;;35.50;14.73;;;;;-0.10;97103.00;;;;8269000;28;22119;-64
2024/01/10 14:57:40;;;;;;;36.97;16.43;;;;;-0.10;97101.00;;;;8271290;28;20786;-64
2024/01/10 15:01:45;;;;;;;45.10;17.10;;;;;-0.20;97101.00;;;;8274508;28;20319;-66
2024/01/10 15:05:48;;;;;;;37.40;15.27;;;;;-0.20;97099.00;;;;8280414;28;20204;-63
2024/01/10 15:09:51;;;;;;;39.67;15.93;;;;;-0.30;97104.00;;;;8279031;28;20906;-66
2024/01/10 15:13:56;;;;;;;38.60;15.77;;;;;-0.40;97109.00;;;;8273142;28;20205;-66
2024/01/10 15:17:59;;;;;;;44.87;17.53;;;;;-0.40;97111.00;;;;8280831;28;20243;-66
2024/01/10 15:22:04;;;;;;;42.60;17.20;;;;;-0.50;97107.00;;;;8279751;28;20693;-65
2024/01/10 15:26:08;;;;;;;38.10;16.03;;;;;-0.50;97107.00;;;;8275409;28;20202;-65
2024/01/10 15:30:14;;;;;;;37.27;15.17;;;;;-0.60;97111.00;;;;8276728;28;20209;-66
2024/01/10 15:34:20;;;;;;;41.13;16.23;;;;;-0.70;97104.00;;;;8277193;28;20208;-63
2024/01/10 15:38:24;;;;;;;43.50;17.10;;;;;-0.80;97101.00;;;;8275582;28;20231;-64
2024/01/10 15:42:28;;;;;;;40.73;16.07;;;;;-0.80;97097.00;;;;8274881;28;20206;-64
2024/01/10 15:46:32;;;;;;;43.30;15.17;;;;;-0.90;97101.00;;;;8274702;28;20272;-64
2024/01/10 15:50:35;;;;;;;45.00;16.17;;;;;-1.00;97103.00;;;;8273855;28;20212;-64
2024/01/10 15:54:39;;;;;;;43.70;18.53;;;;;-1.00;97102.00;;;;8273564;28;20877;-64
2024/01/10 15:58:42;;;;;;;44.00;17.37;;;;;-1.10;97096.00;;;;8270378;28;20223;-64
2024/01/10 16:02:49;;;;;;;49.90;19.60;;;;;-1.10;97103.00;;;;8265544;28;20513;-63
2024/01/10 16:06:52;;;;;;;50.17;19.13;;;;;-1.20;97101.00;;;;8269515;28;20230;-63
2024/01/10 16:10:55;;;;;;;51.90;19.67;;;;;-1.30;97106.00;;;;8271785;28;20207;-64
2024/01/10 16:14:58;;;;;;;50.93;19.30;;;;;-1.30;97104.00;;;;8268725;28;20848;-64
2024/01/10 16:19:03;;;;;;;49.77;19.20;;;;;-1.40;97099.00;;;;8262973;28;20250;-65
2024/01/10 16:23:06;;;;;;;41.07;16.47;;;;;-1.50;97095.00;;;;8270642;28;20264;-65
2024/01/10 16:27:10;;;;;;;54.93;19.83;;;;;-1.50;97098.00;;;;8271975;28;20876;-65
2024/01/10 16:31:13;;;;;;;47.07;17.50;;;;;-1.50;97100.00;;;;8265679;28;20303;-65
2024/01/10 16:35:17;;;;;;;49.07;18.50;;;;;-1.60;97101.00;;;;8266397;28;20886;-65
2024/01/10 16:39:21;;;;;;;61.60;19.27;;;;;-1.70;97111.00;;;;8264705;28;20226;-65
2024/01/10 16:43:25;;;;;;;49.43;18.17;;;;;-1.70;97105.00;;;;8262150;28;20213;-67
2024/01/10 16:47:28;;;;;;;49.97;20.13;;;;;-1.70;97113.00;;;;8262498;28;20251;-67
2024/01/10 16:51:33;;;;;;;56.43;20.73;;;;;-1.70;97113.00;;;;8263206;28;20198;-66
2024/01/10 16:55:36;;;;;;;53.40;18.67;;;;;-1.80;97108.00;;;;8266469;28;20249;-67
2024/01/10 16:59:39;;;;;;;54.33;20.90;;;;;-1.80;97115.00;;;;8263173;28;20314;-66
2024/01/10 17:03:43;;;;;;;52.23;20.47;;;;;-1.80;97122.00;;;;8263237;28;20862;-66
2024/01/10 17:07:49;;;;;;;58.77;22.03;;;;;-1.80;97125.00;;;;8263092;28;20215;-66
2024/01/10 17:11:53;;;;;;;56.43;20.47;;;;;-1.80;97121.00;;;;8267817;28;20208;-65
2024/01/10 17:15:56;;;;;;;58.10;21.70;;;;;-1.80;97133.00;;;;8263572;28;20218;-66
2024/01/10 17:19:59;;;;;;;51.80;20.23;;;;;-1.90;97135.00;;;;8272234;28;20878;-66
2024/01/10 17:24:04;;;;;;;53.40;20.40;;;;;-1.90;97133.00;;;;8265626;28;20815;-66
2024/01/10 17:28:07;;;;;;;48.97;21.13;;;;;-2.00;97132.00;;;;8264698;28;20208;-64
2024/01/10 17:32:10;;;;;;;47.47;20.00;;;;;-2.00;97131.00;;;;8263013;28;20202;-64
2024/01/10 17:36:13;;;;;;;47.60;16.43;;;;;-2.10;97128.00;;;;8269506;28;20213;-63
2024/01/10 17:40:18;;;;;;;46.90;18.13;;;;;-2.10;97127.00;;;;8266930;28;20236;-64
2024/01/10 17:44:21;;;;;;;46.43;17.83;;;;;-2.20;97135.00;;;;8269132;28;20884;-64
2024/01/10 17:48:24;;;;;;;34.67;14.30;;;;;-2.20;97133.00;;;;8267343;28;20724;-65
2024/01/10 17:52:27;;;;;;;52.10;20.77;;;;;-2.30;97132.00;;;;8264345;28;20288;-66
2024/01/10 17:56:33;;;;;;;49.80;19.47;;;;;-2.40;97142.00;;;;8269771;28;20672;-66
2024/01/10 18:00:37;;;;;;;54.23;18.10;;;;;-2.50;97135.00;;;;8266780;28;20345;-65
2024/01/10 18:04:41;;;;;;;51.53;18.53;;;;;-2.50;97143.00;;;;8261481;28;20356;-65
2024/01/10 18:08:44;;;;;;;54.53;20.67;;;;;-2.60;97150.00;;;;8261869;28;20201;-64
2024/01/10 18:12:48;;;;;;;46.00;17.57;;;;;-2.60;97151.00;;;;8264439;28;20202;-64
2024/01/10 18:16:53;;;;;;;44.90;18.30;;;;;-2.70;97148.00;;;;8260053;28;20215;-64
2024/01/10 18:20:56;;;;;;;50.93;19.70;;;;;-2.70;97150.00;;;;8262443;28;21207;-65
2024/01/10 18:24:59;;;;;;;48.33;17.90;;;;;-2.70;97145.00;;;;8262935;28;20355;-64
2024/01/10 18:29:04;;;;;;;58.83;21.17;;;;;-2.70;97148.00;;;;8263601;28;20231;-64
2024/01/10 18:33:09;;;;;;;56.17;22.73;;;;;-2.80;97147.00;;;;8263541;28;20654;-66
2024/01/10 18:37:12;;;;;;;58.30;19.47;;;;;-2.80;97157.00;;;;8260189;28;20218;-65
2024/01/10 18:41:15;;;;;;;53.33;20.00;;;;;-2.80;97158.00;;;;8257386;28;20279;-64
2024/01/10 18:45:20;;;;;;;37.33;14.40;;;;;-2.90;97162.00;;;;8262424;28;20272;-66
2024/01/10 18:49:23;;;;;;;50.27;18.83;;;;;-2.90;97156.00;;;;8264990;28;20206;-66
2024/01/10 18:53:27;;;;;;;33.37;13.73;;;;;-2.90;97153.00;;;;8266771;28;20205;-65
2024/01/10 18:57:30;;;;;;;56.07;19.37;;;;;-2.90;97152.00;;;;8267114;28;20221;-65
2024/01/10 19:01:34;;;;;;;57.57;22.93;;;;;-3.00;97148.00;;;;8268276;28;20232;-65
2024/01/10 19:05:38;;;;;;;57.90;20.83;;;;;-3.00;97141.00;;;;8265578;28;20811;-65
2024/01/10 19:09:42;;;;;;;54.67;22.50;;;;;-3.00;97146.00;;;;8263120;28;20301;-65
2024/01/10 19:13:48;;;;;;;54.47;22.90;;;;;-3.10;97142.00;;;;8258949;28;20644;-66
2024/01/10 19:17:53;;;;;;;58.50;22.27;;;;;-3.10;97143.00;;;;8260025;28;20206;-66
2024/01/10 19:22:00;;;;;;;53.43;20.03;;;;;-3.20;97146.00;;;;8254212;28;20328;-66
2024/01/10 19:26:03;;;;;;;59.23;21.47;;;;;-3.30;97149.00;;;;8253196;28;20209;-65
2024/01/10 19:30:09;;;;;;;58.40;20.90;;;;;-3.30;97157.00;;;;8262187;28;20358;-65
2024/01/10 19:34:14;;;;;;;45.53;17.57;;;;;-3.30;97166.00;;;;8261409;28;20347;-64
2024/01/10 19:38:17;;;;;;;57.27;20.97;;;;;-3.40;97169.00;;;;8258134;28;20210;-65
2024/01/10 19:42:20;;;;;;;66.93;23.43;;;;;-3.40;97154.00;;;;8256827;28;20326;-65
2024/01/10 19:46:24;;;;;;;56.50;22.57;;;;;-3.40;97156.00;;;;8256885;28;20207;-65
2024/01/10 19:50:28;;;;;;;63.13;23.03;;;;;-3.50;97170.00;;;;8254313;28;20877;-65
2024/01/10 19:54:31;;;;;;;58.40;22.90;;;;;-3.50;97155.00;;;;8258411;28;20206;-65